Terminal Aerodrome Forecast
Issued by NWS

Home | Current Version | Previous Version | Graphics & Text | Print | Product List | Glossary On
Versions: 1 2 3 4 5 6 7 8 9 10 11 12 13 14
043
FTUS43 KBIS 240401 AAA
TAFDIK
TAF AMD
KDIK 240401Z 2404/2424 14012KT P6SM SCT150 SCT250
     FM240700 16012KT P6SM SCT110 BKN250
     FM242200 20012KT P6SM FEW200=

USA.gov is the U.S. government's official web portal to all federal, state and local government web resources and services.